Time;durP1;ratioP1;P1;durP2;ratioP2;P2;SDS_P1;SDS_P2;PMS_P1;PMS_P2;Temp;Humidity;BMP_temperature;BMP_pressure;BME280_temperature;BME280_humidity;BME280_pressure;Samples;Min_cycle;Max_cycle;Signal;HPM_P1;HPM_P2
2023/02/11 00:00:57;;;;;;;27.47;18.77;;;4.70;1.00;;;;;;5046046;28;20453;-56
2023/02/11 00:03:23;;;;;;;28.90;17.27;;;4.90;1.00;;;;;;5042546;28;20865;-57
2023/02/11 00:05:59;;;;;;;26.60;17.10;;;4.70;1.00;;;;;;5044896;28;20192;-56
2023/02/11 00:08:25;;;;;;;28.57;17.67;;;4.70;1.00;;;;;;5046755;28;20476;-56
2023/02/11 00:10:55;;;;;;;27.03;18.00;;;4.60;1.00;;;;;;5047231;28;20457;-57
2023/02/11 00:13:21;;;;;;;28.63;17.33;;;4.60;1.00;;;;;;5046075;28;20476;-56
2023/02/11 00:15:46;;;;;;;29.00;16.80;;;4.70;1.00;;;;;;5049612;28;20452;-55
2023/02/11 00:18:12;;;;;;;28.53;19.03;;;4.70;1.00;;;;;;5043183;28;20460;-56
2023/02/11 00:20:39;;;;;;;29.63;18.10;;;4.70;1.00;;;;;;5041817;28;20261;-56
2023/02/11 00:23:04;;;;;;;27.17;17.47;;;4.70;1.00;;;;;;5039620;28;20207;-57
2023/02/11 00:25:30;;;;;;;30.23;17.40;;;4.90;1.00;;;;;;5039779;28;20461;-56
2023/02/11 00:27:56;;;;;;;26.67;18.80;;;4.90;1.00;;;;;;5038164;28;20211;-55
2023/02/11 00:30:22;;;;;;;26.70;17.27;;;5.00;1.00;;;;;;5060177;28;20984;-56
2023/02/11 00:32:48;;;;;;;23.40;16.50;;;5.10;1.00;;;;;;5037759;28;20200;-55
2023/02/11 00:35:13;;;;;;;24.43;17.13;;;5.10;1.00;;;;;;5033621;28;20449;-55
2023/02/11 00:37:39;;;;;;;26.40;18.13;;;5.00;1.00;;;;;;5031856;28;20185;-56
2023/02/11 00:40:05;;;;;;;24.97;16.00;;;5.10;1.00;;;;;;5033774;28;20195;-56
2023/02/11 00:42:31;;;;;;;24.93;17.13;;;5.20;1.00;;;;;;5041561;28;20665;-55
2023/02/11 00:44:57;;;;;;;28.43;17.57;;;5.10;1.00;;;;;;5043822;28;20503;-56
2023/02/11 00:47:22;;;;;;;25.47;18.00;;;5.00;1.00;;;;;;5046138;28;20297;-56
2023/02/11 00:49:48;;;;;;;27.93;17.97;;;5.00;1.00;;;;;;5041219;28;20187;-56
2023/02/11 00:52:13;;;;;;;23.40;16.27;;;5.10;1.00;;;;;;5042146;28;20273;-55
2023/02/11 00:54:39;;;;;;;28.70;17.87;;;5.30;1.00;;;;;;5046274;28;20231;-56
2023/02/11 00:57:05;;;;;;;23.13;16.60;;;5.30;1.00;;;;;;5044899;28;20191;-56
2023/02/11 00:59:30;;;;;;;26.10;18.30;;;5.30;1.00;;;;;;5043954;28;20199;-55
2023/02/11 01:01:56;;;;;;;28.57;17.43;;;5.40;1.00;;;;;;5047136;28;20190;-56
2023/02/11 01:04:22;;;;;;;27.13;16.90;;;5.40;1.00;;;;;;5053191;28;20643;-57
2023/02/11 01:06:47;;;;;;;30.10;17.07;;;5.40;1.00;;;;;;5045902;28;20226;-57
2023/02/11 01:09:13;;;;;;;25.20;17.07;;;5.50;1.00;;;;;;5044102;28;20309;-57
2023/02/11 01:11:39;;;;;;;25.93;17.90;;;5.40;1.00;;;;;;5037626;28;20198;-55
2023/02/11 01:14:04;;;;;;;26.90;16.80;;;5.40;1.00;;;;;;5040813;28;20667;-55
2023/02/11 01:16:30;;;;;;;24.80;17.47;;;5.50;1.00;;;;;;5044534;28;20195;-57
2023/02/11 01:18:57;;;;;;;22.83;16.93;;;5.50;1.00;;;;;;5033953;28;20291;-56
2023/02/11 01:21:23;;;;;;;25.40;17.57;;;5.50;1.00;;;;;;5031579;28;20210;-56
2023/02/11 01:23:49;;;;;;;23.80;18.20;;;5.50;1.00;;;;;;5039554;28;20448;-56
2023/02/11 01:26:15;;;;;;;23.73;17.10;;;5.60;1.00;;;;;;5034228;28;20492;-55
2023/02/11 01:28:40;;;;;;;28.93;18.50;;;5.50;1.00;;;;;;5039319;28;20700;-55
2023/02/11 01:31:06;;;;;;;24.57;17.63;;;5.60;1.00;;;;;;5034852;28;20193;-55
2023/02/11 01:33:32;;;;;;;27.50;16.90;;;5.60;1.00;;;;;;5037695;28;20452;-55
2023/02/11 01:36:02;;;;;;;31.07;18.93;;;5.60;1.00;;;;;;5035109;28;20248;-55
2023/02/11 01:38:28;;;;;;;30.40;18.70;;;5.60;1.00;;;;;;5049359;28;20773;-56
2023/02/11 01:41:09;;;;;;;28.33;19.00;;;5.60;1.00;;;;;;5048557;28;20465;-57
2023/02/11 01:43:48;;;;;;;30.77;18.43;;;5.70;1.00;;;;;;5047528;28;20451;-56
2023/02/11 01:46:34;;;;;;;26.00;18.40;;;5.80;1.00;;;;;;5048441;28;20453;-57
2023/02/11 01:49:11;;;;;;;24.47;16.97;;;5.80;1.00;;;;;;5045778;28;20755;-56
2023/02/11 01:51:44;;;;;;;26.33;18.40;;;5.70;1.00;;;;;;5046224;28;20957;-56
2023/02/11 01:57:21;;;;;;;27.40;18.87;;;5.80;1.00;;;;;;5045239;28;20545;-55
2023/02/11 01:59:57;;;;;;;27.53;18.57;;;5.60;1.00;;;;;;5044414;28;20484;-56
2023/02/11 02:03:00;;;;;;;26.03;17.67;;;5.70;1.00;;;;;;5047122;28;20448;-56
2023/02/11 02:05:37;;;;;;;25.03;18.03;;;5.70;1.00;;;;;;5041967;28;20446;-56
2023/02/11 02:08:18;;;;;;;27.07;17.57;;;5.60;1.00;;;;;;5046949;28;20466;-55
2023/02/11 02:10:47;;;;;;;34.27;20.07;;;5.80;1.00;;;;;;5044910;28;20441;-58
2023/02/11 02:13:13;;;;;;;25.83;17.33;;;5.60;1.00;;;;;;5053746;28;20924;-56
2023/02/11 02:15:46;;;;;;;23.07;17.10;;;5.70;1.00;;;;;;5047265;28;20453;-55
2023/02/11 02:18:21;;;;;;;34.00;20.53;;;5.70;1.00;;;;;;5043056;28;20456;-55
2023/02/11 02:21:13;;;;;;;26.70;18.23;;;5.70;1.00;;;;;;5047209;28;20454;-56
2023/02/11 02:24:06;;;;;;;27.63;18.93;;;5.70;1.00;;;;;;5044501;28;20506;-56
2023/02/11 02:26:50;;;;;;;27.60;18.80;;;5.80;1.00;;;;;;5046425;28;20515;-56
2023/02/11 02:29:43;;;;;;;24.80;17.53;;;5.90;1.00;;;;;;5046434;28;20473;-57
2023/02/11 02:32:49;;;;;;;30.57;18.13;;;5.90;1.00;;;;;;5044973;28;20643;-55
2023/02/11 02:35:29;;;;;;;28.43;18.30;;;6.00;1.00;;;;;;5032476;28;20490;-55
2023/02/11 02:38:00;;;;;;;29.20;17.70;;;5.70;1.00;;;;;;5032786;28;20474;-57
2023/02/11 02:40:52;;;;;;;26.17;18.43;;;6.10;1.00;;;;;;5032391;28;20563;-56
2023/02/11 02:43:19;;;;;;;22.50;16.07;;;6.30;1.00;;;;;;5033047;28;20878;-55
2023/02/11 02:45:44;;;;;;;28.70;19.50;;;6.20;1.00;;;;;;5032917;28;20541;-55
2023/02/11 02:48:27;;;;;;;23.30;16.80;;;6.30;1.00;;;;;;5035137;28;20491;-57
2023/02/11 02:51:22;;;;;;;27.03;18.93;;;6.20;1.00;;;;;;5044156;28;20252;-56
2023/02/11 02:54:08;;;;;;;29.90;18.80;;;6.20;1.00;;;;;;5043011;28;20477;-55
2023/02/11 02:56:57;;;;;;;29.70;19.60;;;6.10;1.00;;;;;;5043526;28;20449;-56
2023/02/11 02:59:44;;;;;;;26.00;18.10;;;6.30;1.00;;;;;;5036707;28;20461;-56
2023/02/11 03:02:18;;;;;;;23.57;17.40;;;6.30;1.00;;;;;;5050213;28;20499;-56
2023/02/11 03:04:56;;;;;;;27.40;18.47;;;6.20;1.00;;;;;;5045387;28;20447;-55
2023/02/11 03:07:33;;;;;;;25.70;17.83;;;6.30;1.00;;;;;;5044824;28;20480;-56
2023/02/11 03:10:18;;;;;;;24.27;16.97;;;6.30;1.00;;;;;;5049610;28;20452;-55
2023/02/11 03:12:46;;;;;;;26.73;18.30;;;6.50;1.00;;;;;;5041520;28;20441;-56
2023/02/11 03:15:13;;;;;;;24.07;17.67;;;6.50;1.00;;;;;;5041122;28;20458;-56
2023/02/11 03:17:44;;;;;;;22.30;17.37;;;6.50;1.00;;;;;;5044823;28;20536;-55
2023/02/11 03:20:12;;;;;;;28.30;17.90;;;6.50;1.00;;;;;;5043332;28;20455;-55
2023/02/11 03:23:16;;;;;;;22.20;16.23;;;6.50;1.00;;;;;;5038095;28;20997;-56
2023/02/11 03:25:50;;;;;;;26.83;17.80;;;6.60;1.00;;;;;;5036695;28;20451;-56
2023/02/11 03:28:32;;;;;;;24.47;17.77;;;6.70;1.00;;;;;;5037980;28;20501;-56
2023/02/11 03:31:12;;;;;;;26.87;17.53;;;6.60;1.00;;;;;;5038631;28;20481;-55
2023/02/11 03:34:17;;;;;;;24.43;17.87;;;6.60;1.00;;;;;;5036156;28;20546;-56
2023/02/11 03:36:55;;;;;;;32.47;19.00;;;6.70;1.00;;;;;;5036198;28;20447;-56
2023/02/11 03:39:29;;;;;;;25.97;18.30;;;6.70;1.00;;;;;;5037278;28;20462;-56
2023/02/11 03:41:57;;;;;;;27.07;18.10;;;6.60;1.00;;;;;;5035558;28;20973;-55
2023/02/11 03:44:28;;;;;;;27.03;18.80;;;6.60;1.00;;;;;;5036635;28;21917;-56
2023/02/11 03:46:55;;;;;;;26.40;19.00;;;6.50;1.00;;;;;;5041890;28;20798;-56
2023/02/11 03:49:23;;;;;;;26.07;19.17;;;6.50;1.00;;;;;;5036070;28;20477;-55
2023/02/11 03:51:52;;;;;;;28.73;18.30;;;6.60;1.00;;;;;;5036029;28;20445;-56
2023/02/11 03:54:28;;;;;;;27.73;18.67;;;6.50;1.00;;;;;;5046121;28;20531;-55
2023/02/11 03:56:58;;;;;;;27.50;19.80;;;6.60;1.00;;;;;;5036086;28;20442;-56
2023/02/11 03:59:24;;;;;;;24.27;19.33;;;6.40;1.00;;;;;;5041191;28;20455;-55
2023/02/11 04:01:50;;;;;;;27.30;19.37;;;6.40;1.00;;;;;;5048114;28;20462;-54
2023/02/11 04:04:16;;;;;;;26.60;17.90;;;6.30;1.00;;;;;;5048336;28;20461;-55
2023/02/11 04:06:43;;;;;;;33.30;20.10;;;6.40;1.00;;;;;;5048111;28;20795;-56
2023/02/11 04:09:09;;;;;;;31.37;19.93;;;6.40;1.00;;;;;;5047769;28;20484;-55
2023/02/11 04:11:34;;;;;;;28.93;19.80;;;6.50;1.00;;;;;;5041969;28;20465;-55
2023/02/11 04:14:00;;;;;;;29.13;20.10;;;6.50;1.00;;;;;;5042359;28;20445;-55
2023/02/11 04:16:26;;;;;;;28.90;20.20;;;6.50;1.00;;;;;;5035128;28;20243;-56
2023/02/11 04:18:51;;;;;;;29.60;20.13;;;6.50;1.00;;;;;;5037184;28;20328;-57
2023/02/11 04:21:17;;;;;;;28.80;20.10;;;6.60;1.00;;;;;;5045299;28;20741;-56
2023/02/11 04:23:43;;;;;;;32.70;19.90;;;6.60;1.00;;;;;;5044487;28;20756;-55
2023/02/11 04:26:08;;;;;;;28.17;18.77;;;6.70;1.00;;;;;;5043873;28;20812;-56
2023/02/11 04:28:35;;;;;;;30.07;20.20;;;6.70;1.00;;;;;;5045256;28;20215;-56
2023/02/11 04:31:00;;;;;;;27.23;18.83;;;6.60;1.00;;;;;;5044735;28;20290;-56
2023/02/11 04:33:26;;;;;;;27.10;19.57;;;6.60;1.00;;;;;;5041852;28;20553;-56
2023/02/11 04:35:52;;;;;;;28.83;19.30;;;6.70;1.00;;;;;;5035752;28;20207;-56
2023/02/11 04:38:17;;;;;;;28.63;19.30;;;6.60;1.00;;;;;;5033112;28;20195;-56
2023/02/11 04:40:43;;;;;;;29.23;20.00;;;6.60;1.00;;;;;;5047236;28;20272;-55
2023/02/11 04:43:09;;;;;;;25.37;18.97;;;6.60;1.00;;;;;;5044602;28;20205;-55
2023/02/11 04:45:34;;;;;;;26.80;18.40;;;6.50;1.00;;;;;;5046207;28;20195;-55
2023/02/11 04:48:03;;;;;;;25.70;19.20;;;6.50;1.00;;;;;;5039813;28;20218;-57
2023/02/11 04:50:29;;;;;;;27.53;18.80;;;6.50;1.00;;;;;;5045412;28;20307;-55
2023/02/11 04:52:54;;;;;;;28.10;18.57;;;6.60;1.00;;;;;;5045112;28;20552;-58
2023/02/11 04:55:20;;;;;;;24.80;17.83;;;6.50;1.00;;;;;;5047785;28;20183;-55
2023/02/11 04:57:46;;;;;;;28.57;20.97;;;6.60;1.00;;;;;;5042538;28;20203;-56
2023/02/11 05:00:12;;;;;;;26.70;19.20;;;6.70;1.00;;;;;;5044488;28;20637;-56
2023/02/11 05:02:37;;;;;;;30.77;20.20;;;6.70;1.00;;;;;;5042488;28;20202;-55
2023/02/11 05:05:04;;;;;;;25.40;19.23;;;6.60;1.00;;;;;;5047333;28;20953;-56
2023/02/11 05:07:29;;;;;;;33.10;19.50;;;6.60;1.00;;;;;;5035366;28;20561;-56
2023/02/11 05:09:55;;;;;;;32.43;21.40;;;6.40;1.00;;;;;;5043111;28;20453;-56
2023/02/11 05:12:21;;;;;;;36.00;21.10;;;6.30;1.00;;;;;;5039367;28;20536;-55
2023/02/11 05:14:46;;;;;;;30.53;20.10;;;6.90;1.00;;;;;;5040896;28;20195;-55
2023/02/11 05:17:12;;;;;;;30.13;20.33;;;6.10;1.00;;;;;;5036812;28;20196;-56
2023/02/11 05:19:38;;;;;;;35.27;21.77;;;6.10;1.00;;;;;;5028021;28;20199;-56
2023/02/11 05:22:03;;;;;;;31.63;22.13;;;6.20;1.00;;;;;;5029955;28;20247;-56
2023/02/11 05:24:31;;;;;;;30.33;20.87;;;6.20;1.00;;;;;;5033373;28;20453;-55
2023/02/11 05:26:56;;;;;;;34.43;20.90;;;6.10;1.00;;;;;;5033296;28;20340;-55
2023/02/11 05:29:22;;;;;;;31.50;20.20;;;6.20;1.00;;;;;;5035044;28;20901;-56
2023/02/11 05:31:48;;;;;;;28.90;21.17;;;6.20;1.00;;;;;;5033993;28;20192;-55
2023/02/11 05:34:13;;;;;;;29.10;20.70;;;6.20;1.00;;;;;;5033931;28;20307;-55
2023/02/11 05:36:39;;;;;;;32.03;21.43;;;6.10;1.00;;;;;;5045964;28;20195;-55
2023/02/11 05:39:05;;;;;;;29.57;20.97;;;6.10;1.00;;;;;;5046296;28;20281;-56
2023/02/11 05:41:30;;;;;;;28.23;19.50;;;6.10;1.00;;;;;;5053667;28;20459;-55
2023/02/11 05:43:56;;;;;;;31.47;20.60;;;6.10;1.00;;;;;;5046322;28;20198;-56
2023/02/11 05:46:22;;;;;;;30.40;21.00;;;6.10;1.00;;;;;;5043299;28;20193;-56
2023/02/11 05:48:47;;;;;;;31.53;21.77;;;6.20;1.00;;;;;;5046029;28;20202;-55
2023/02/11 05:51:13;;;;;;;34.30;22.20;;;6.20;1.00;;;;;;5042699;28;20399;-55
2023/02/11 05:53:38;;;;;;;30.73;21.73;;;6.20;1.00;;;;;;5043658;28;20233;-55
2023/02/11 05:56:04;;;;;;;29.40;21.00;;;6.10;1.00;;;;;;5045852;28;20182;-55
2023/02/11 05:58:31;;;;;;;32.53;21.77;;;6.20;1.00;;;;;;5039773;28;20198;-56
2023/02/11 06:00:57;;;;;;;32.97;21.47;;;6.10;1.00;;;;;;5037568;28;20457;-56
2023/02/11 06:03:22;;;;;;;33.40;22.40;;;6.20;1.00;;;;;;5034510;28;20456;-56
2023/02/11 06:05:48;;;;;;;33.07;21.83;;;6.10;1.00;;;;;;5042068;28;20190;-55
2023/02/11 06:08:13;;;;;;;31.73;21.43;;;6.20;1.00;;;;;;5044315;28;20326;-56
2023/02/11 06:10:41;;;;;;;35.10;22.53;;;6.00;1.00;;;;;;5043106;28;20660;-56
2023/02/11 06:13:07;;;;;;;35.03;21.03;;;6.00;1.00;;;;;;5041443;28;20188;-56
2023/02/11 06:15:33;;;;;;;34.73;23.27;;;6.00;1.00;;;;;;5036508;28;20476;-57
2023/02/11 06:17:58;;;;;;;29.30;20.60;;;6.10;1.00;;;;;;5035728;28;20213;-55
2023/02/11 06:20:24;;;;;;;31.97;21.30;;;6.00;1.00;;;;;;5038911;28;20541;-56
2023/02/11 06:22:50;;;;;;;35.60;22.57;;;6.00;1.00;;;;;;5044142;28;20190;-56
2023/02/11 06:25:15;;;;;;;33.10;22.57;;;6.10;1.00;;;;;;5047836;28;20281;-56
2023/02/11 06:27:41;;;;;;;33.67;22.60;;;6.10;1.00;;;;;;5047050;28;20232;-55
2023/02/11 06:30:07;;;;;;;31.20;20.90;;;6.10;1.00;;;;;;5049430;28;20202;-55
2023/02/11 06:32:33;;;;;;;36.83;21.37;;;6.10;1.00;;;;;;5048929;28;20774;-56
2023/02/11 06:34:59;;;;;;;38.27;23.50;;;6.10;1.00;;;;;;5047650;28;20456;-57
2023/02/11 06:37:25;;;;;;;33.37;21.30;;;6.10;1.00;;;;;;5048463;28;20451;-55
2023/02/11 06:39:50;;;;;;;35.97;22.53;;;6.00;1.00;;;;;;5049091;28;20553;-56
2023/02/11 06:42:16;;;;;;;34.60;21.30;;;6.10;1.00;;;;;;5040457;28;20332;-57
2023/02/11 06:44:41;;;;;;;33.70;21.50;;;6.10;1.00;;;;;;5046015;28;20234;-55
2023/02/11 06:47:07;;;;;;;28.30;20.43;;;6.10;1.00;;;;;;5042698;28;20921;-55
2023/02/11 06:49:33;;;;;;;36.33;22.43;;;6.10;1.00;;;;;;5041006;28;20231;-56
2023/02/11 06:51:58;;;;;;;37.00;22.57;;;6.20;1.00;;;;;;5048922;28;20576;-56
2023/02/11 06:54:24;;;;;;;36.30;24.63;;;6.20;1.00;;;;;;5050460;28;20272;-56
2023/02/11 06:56:49;;;;;;;35.43;22.40;;;6.40;1.00;;;;;;5049590;28;20187;-57
2023/02/11 06:59:17;;;;;;;32.73;21.60;;;6.30;1.00;;;;;;5048497;28;20194;-56
2023/02/11 07:01:43;;;;;;;31.63;20.47;;;6.20;1.00;;;;;;5048699;28;20193;-58
2023/02/11 07:04:09;;;;;;;35.93;22.60;;;6.30;1.00;;;;;;5047569;28;20658;-55
2023/02/11 07:06:36;;;;;;;32.23;21.80;;;6.30;1.00;;;;;;5042359;28;20496;-56
2023/02/11 07:09:02;;;;;;;33.30;23.00;;;6.20;1.00;;;;;;5046636;28;20313;-55
2023/02/11 07:11:29;;;;;;;35.10;22.37;;;6.30;1.00;;;;;;5046893;28;20456;-57
2023/02/11 07:13:59;;;;;;;32.73;20.80;;;6.30;1.00;;;;;;5044771;28;20457;-57
2023/02/11 07:16:25;;;;;;;33.23;21.03;;;6.40;1.00;;;;;;5043363;28;20465;-57
2023/02/11 07:18:50;;;;;;;32.17;21.80;;;6.40;1.00;;;;;;5036209;28;20459;-56
2023/02/11 07:21:19;;;;;;;34.50;22.43;;;6.40;1.00;;;;;;5036674;28;20794;-56
2023/02/11 07:23:45;;;;;;;33.70;23.13;;;6.40;1.00;;;;;;5033323;28;20677;-55
2023/02/11 07:26:13;;;;;;;33.30;22.57;;;6.40;1.00;;;;;;5037136;28;20444;-55
2023/02/11 07:28:40;;;;;;;37.70;23.73;;;6.30;1.00;;;;;;5035129;28;20852;-57
2023/02/11 07:31:13;;;;;;;41.07;24.43;;;6.40;1.00;;;;;;5033574;28;20454;-55
2023/02/11 07:33:39;;;;;;;38.93;24.20;;;5.90;1.00;;;;;;5035431;28;20897;-56
2023/02/11 07:36:07;;;;;;;33.87;20.00;;;6.20;1.00;;;;;;5038627;28;21075;-56
2023/02/11 07:38:34;;;;;;;34.43;23.27;;;6.10;1.00;;;;;;5033357;28;20885;-56
2023/02/11 07:41:02;;;;;;;35.50;23.40;;;6.10;1.00;;;;;;5034458;28;20464;-55
2023/02/11 07:43:27;;;;;;;39.50;22.80;;;6.30;1.00;;;;;;5035507;28;20462;-56
2023/02/11 07:45:54;;;;;;;36.63;22.30;;;6.20;1.00;;;;;;5037663;28;20450;-56
2023/02/11 07:48:19;;;;;;;34.20;21.63;;;6.30;1.00;;;;;;5037312;28;20700;-55
2023/02/11 07:50:45;;;;;;;34.27;23.70;;;6.30;1.00;;;;;;5040428;28;20460;-56
2023/02/11 07:53:10;;;;;;;37.10;22.57;;;6.30;1.00;;;;;;5041048;28;20245;-57
2023/02/11 07:55:36;;;;;;;31.93;21.97;;;6.40;1.00;;;;;;5035218;28;20239;-57
2023/02/11 07:58:02;;;;;;;42.50;25.23;;;6.30;1.00;;;;;;5045996;28;20195;-57
2023/02/11 08:00:27;;;;;;;35.60;23.70;;;6.40;1.00;;;;;;5041924;28;20197;-57
2023/02/11 08:02:53;;;;;;;35.57;22.67;;;6.40;1.00;;;;;;5042215;28;20677;-57
2023/02/11 08:05:18;;;;;;;41.93;23.73;;;6.50;1.00;;;;;;5049154;28;20192;-57
2023/02/11 08:07:44;;;;;;;32.17;20.53;;;6.50;1.00;;;;;;5044290;28;20207;-56
2023/02/11 08:10:10;;;;;;;32.93;21.87;;;6.50;1.00;;;;;;5048749;28;20622;-56
2023/02/11 08:12:35;;;;;;;39.30;24.47;;;6.60;1.00;;;;;;5041249;28;20185;-57
2023/02/11 08:15:01;;;;;;;30.97;20.23;;;6.60;1.00;;;;;;5043901;28;20179;-56
2023/02/11 08:17:26;;;;;;;36.20;22.37;;;6.60;1.00;;;;;;5042045;28;20688;-56
2023/02/11 08:19:52;;;;;;;35.87;21.37;;;6.70;1.00;;;;;;5034313;28;20230;-57
2023/02/11 08:22:18;;;;;;;33.40;21.83;;;6.80;1.00;;;;;;5037278;28;20203;-57
2023/02/11 08:24:44;;;;;;;34.97;22.83;;;6.70;1.00;;;;;;5036908;28;20458;-56
2023/02/11 08:27:09;;;;;;;37.40;23.00;;;6.80;1.00;;;;;;5043272;28;20224;-57
2023/02/11 08:29:35;;;;;;;28.73;21.47;;;6.80;1.00;;;;;;5051631;28;20191;-57
2023/02/11 08:32:01;;;;;;;31.67;21.57;;;6.90;1.00;;;;;;5048904;28;20248;-55
2023/02/11 08:34:27;;;;;;;36.80;21.90;;;6.90;1.00;;;;;;5048206;28;20589;-57
2023/02/11 08:36:53;;;;;;;31.53;20.27;;;7.00;1.00;;;;;;5042028;28;20526;-56
2023/02/11 08:39:20;;;;;;;30.40;22.83;;;7.00;1.00;;;;;;5044562;28;20202;-56
2023/02/11 08:41:52;;;;;;;32.93;21.30;;;6.90;1.00;;;;;;5038845;28;20605;-58
2023/02/11 08:44:19;;;;;;;30.83;19.80;;;6.80;1.00;;;;;;5040924;28;20472;-57
2023/02/11 08:46:45;;;;;;;27.70;20.20;;;6.80;1.00;;;;;;5047840;28;20521;-57
2023/02/11 08:49:10;;;;;;;30.87;20.70;;;6.90;1.00;;;;;;5035601;28;20442;-58
2023/02/11 08:51:36;;;;;;;29.63;20.67;;;7.00;1.00;;;;;;5043339;28;20445;-57
2023/02/11 08:54:02;;;;;;;34.10;21.03;;;6.80;1.00;;;;;;5046256;28;20738;-57
2023/02/11 08:56:30;;;;;;;33.30;20.33;;;7.10;1.00;;;;;;5039329;28;20191;-56
2023/02/11 08:58:55;;;;;;;30.40;20.53;;;7.00;1.00;;;;;;5044747;28;20198;-59
2023/02/11 09:01:24;;;;;;;28.87;20.17;;;7.00;1.00;;;;;;5041713;28;20451;-55
2023/02/11 09:03:50;;;;;;;30.00;20.50;;;6.90;1.00;;;;;;5038850;28;20213;-56
2023/02/11 09:06:17;;;;;;;29.73;20.87;;;7.00;1.00;;;;;;5045238;28;20444;-55
2023/02/11 09:08:46;;;;;;;30.60;21.67;;;6.80;1.00;;;;;;5037721;28;20477;-55
2023/02/11 09:11:12;;;;;;;30.93;21.50;;;6.90;1.00;;;;;;5042294;28;20449;-55
2023/02/11 09:13:40;;;;;;;30.37;20.50;;;6.90;1.00;;;;;;5039940;28;20444;-55
2023/02/11 09:16:06;;;;;;;31.77;23.50;;;7.00;1.00;;;;;;5046281;28;20520;-55
2023/02/11 09:18:32;;;;;;;32.63;21.30;;;7.10;1.00;;;;;;5043331;28;20541;-54
2023/02/11 09:21:03;;;;;;;31.60;20.27;;;7.10;1.00;;;;;;5041210;28;20894;-54
2023/02/11 09:23:28;;;;;;;30.53;21.77;;;7.10;1.00;;;;;;5046775;28;20468;-55
2023/02/11 09:25:54;;;;;;;27.57;20.30;;;7.30;1.00;;;;;;5049151;28;20544;-55
2023/02/11 09:28:20;;;;;;;33.90;22.60;;;7.20;1.00;;;;;;5048504;28;20310;-54
2023/02/11 09:30:45;;;;;;;33.33;21.33;;;7.20;1.00;;;;;;5049208;28;20184;-57
2023/02/11 09:33:11;;;;;;;36.60;22.40;;;7.20;1.00;;;;;;5049307;28;20372;-56
2023/02/11 09:35:36;;;;;;;29.33;21.77;;;7.20;1.00;;;;;;5049237;28;20184;-55
2023/02/11 09:38:02;;;;;;;33.93;22.70;;;7.10;1.00;;;;;;5048872;28;20195;-56
2023/02/11 09:40:28;;;;;;;31.87;21.63;;;7.10;1.00;;;;;;5045819;28;20186;-56
2023/02/11 09:43:04;;;;;;;33.67;22.87;;;7.00;1.00;;;;;;5069473;28;20664;-54
2023/02/11 09:45:30;;;;;;;36.57;24.90;;;7.10;1.00;;;;;;5069394;28;20796;-55
2023/02/11 09:48:03;;;;;;;29.90;21.03;;;7.20;1.00;;;;;;5061851;28;20461;-55
2023/02/11 09:50:38;;;;;;;29.33;22.23;;;7.10;1.00;;;;;;5051264;28;20468;-56
2023/02/11 09:53:10;;;;;;;37.43;22.37;;;7.20;1.00;;;;;;5045089;28;20773;-55
2023/02/11 09:55:41;;;;;;;33.17;23.00;;;7.20;1.00;;;;;;5043064;28;20457;-55
2023/02/11 09:58:15;;;;;;;32.13;23.77;;;7.40;1.00;;;;;;5042537;28;20798;-56
2023/02/11 10:00:52;;;;;;;31.53;21.80;;;7.40;1.00;;;;;;5046049;28;20483;-55
2023/02/11 10:03:33;;;;;;;30.33;21.73;;;7.30;1.00;;;;;;5047908;28;20445;-56
2023/02/11 10:06:07;;;;;;;30.23;21.70;;;7.20;1.00;;;;;;5043901;28;20822;-55
2023/02/11 10:08:47;;;;;;;32.13;23.50;;;7.20;1.00;;;;;;5047193;28;20992;-55
2023/02/11 10:11:39;;;;;;;32.53;22.77;;;7.20;1.00;;;;;;5044770;28;20954;-56
2023/02/11 10:14:10;;;;;;;33.87;23.10;;;7.30;1.00;;;;;;5044768;28;20445;-55
2023/02/11 10:16:52;;;;;;;32.67;22.73;;;7.40;1.00;;;;;;5045509;28;20502;-54
2023/02/11 10:19:25;;;;;;;32.77;22.10;;;7.60;1.00;;;;;;5045186;28;20781;-56
2023/02/11 10:21:57;;;;;;;31.57;22.20;;;7.60;1.00;;;;;;5047834;28;20445;-56
2023/02/11 10:24:23;;;;;;;31.53;22.10;;;7.80;1.00;;;;;;5048112;28;20510;-57
2023/02/11 10:26:51;;;;;;;28.77;21.60;;;7.80;1.00;;;;;;5039973;28;20470;-56
2023/02/11 10:29:40;;;;;;;33.23;23.03;;;7.60;1.00;;;;;;5054450;28;20445;-56
2023/02/11 10:32:46;;;;;;;33.00;22.47;;;7.60;1.00;;;;;;5044545;28;20538;-57
2023/02/11 10:35:16;;;;;;;33.80;22.43;;;7.70;1.00;;;;;;5027681;28;20457;-56
2023/02/11 10:37:42;;;;;;;35.50;23.13;;;7.70;1.00;;;;;;5057568;28;20435;-58
2023/02/11 10:40:21;;;;;;;35.33;24.40;;;7.70;1.00;;;;;;5046847;28;21235;-56
2023/02/11 10:42:56;;;;;;;31.50;20.07;;;7.70;1.00;;;;;;5048010;28;20446;-55
2023/02/11 10:45:47;;;;;;;32.97;21.77;;;7.70;1.00;;;;;;5045064;28;20485;-56
2023/02/11 10:48:51;;;;;;;34.93;21.50;;;7.80;1.00;;;;;;5039773;28;20474;-56
2023/02/11 10:51:33;;;;;;;30.67;22.20;;;7.80;1.00;;;;;;5022608;28;20868;-57
2023/02/11 10:54:12;;;;;;;30.67;22.13;;;8.00;1.00;;;;;;5046119;28;20447;-59
2023/02/11 10:56:45;;;;;;;29.80;20.83;;;8.00;1.00;;;;;;5045293;28;20470;-57
2023/02/11 10:59:33;;;;;;;30.50;19.43;;;7.90;1.00;;;;;;5043620;28;20973;-57
2023/02/11 11:02:03;;;;;;;34.37;22.30;;;7.90;1.00;;;;;;5043193;28;20439;-58
2023/02/11 11:04:28;;;;;;;28.77;20.67;;;8.00;1.00;;;;;;5046884;28;20455;-56
2023/02/11 11:06:55;;;;;;;29.63;21.97;;;8.20;1.00;;;;;;5046960;28;20462;-56
2023/02/11 11:09:31;;;;;;;32.37;22.47;;;8.10;1.00;;;;;;5048894;28;20314;-56
2023/02/11 11:11:57;;;;;;;28.10;20.23;;;8.00;1.00;;;;;;5048839;28;20446;-57
2023/02/11 11:14:27;;;;;;;28.40;20.43;;;7.90;1.00;;;;;;5047534;28;20465;-56
2023/02/11 11:16:54;;;;;;;29.10;21.13;;;7.90;1.00;;;;;;5049882;28;20199;-56
2023/02/11 11:19:22;;;;;;;30.90;20.80;;;8.00;1.00;;;;;;5046055;28;20461;-56
2023/02/11 11:21:53;;;;;;;28.87;20.57;;;8.00;1.00;;;;;;5047010;28;20439;-56
2023/02/11 11:24:33;;;;;;;29.43;21.53;;;7.90;1.00;;;;;;5045888;28;20495;-55
2023/02/11 11:27:01;;;;;;;28.17;19.97;;;7.90;1.00;;;;;;5048924;28;20465;-57
2023/02/11 11:29:35;;;;;;;31.73;21.40;;;8.10;1.00;;;;;;5050976;28;20450;-56
2023/02/11 11:32:10;;;;;;;28.20;18.00;;;8.00;1.00;;;;;;5055666;28;20832;-56
2023/02/11 11:34:47;;;;;;;27.53;19.97;;;7.90;1.00;;;;;;5045638;28;20615;-56
2023/02/11 11:37:18;;;;;;;27.00;19.30;;;8.00;1.00;;;;;;5048678;28;20549;-59
2023/02/11 11:39:54;;;;;;;32.20;20.43;;;8.00;1.00;;;;;;5048435;28;20447;-57
2023/02/11 11:42:31;;;;;;;28.50;19.10;;;8.10;1.00;;;;;;5056848;28;20922;-57
2023/02/11 11:45:03;;;;;;;25.80;17.77;;;8.20;1.00;;;;;;5047515;28;20447;-57
2023/02/11 11:47:49;;;;;;;31.00;20.70;;;8.20;1.00;;;;;;5048559;28;20465;-57
2023/02/11 11:50:23;;;;;;;27.93;18.40;;;8.30;1.00;;;;;;5050131;28;20494;-57
2023/02/11 11:53:15;;;;;;;26.20;19.10;;;8.20;1.00;;;;;;5047476;28;20527;-59
2023/02/11 11:55:44;;;;;;;29.87;19.53;;;8.20;1.00;;;;;;5047120;28;20873;-59
2023/02/11 11:58:17;;;;;;;28.97;20.50;;;8.20;1.00;;;;;;5046593;28;20520;-58
2023/02/11 12:00:48;;;;;;;29.47;18.00;;;8.20;1.00;;;;;;5058233;28;20879;-55
2023/02/11 12:03:27;;;;;;;28.13;18.97;;;8.10;1.00;;;;;;5048618;28;20564;-57
2023/02/11 12:06:19;;;;;;;30.50;20.10;;;8.20;1.00;;;;;;5049615;28;20421;-55
2023/02/11 12:09:09;;;;;;;29.00;19.50;;;8.20;1.00;;;;;;5048352;28;20477;-57
2023/02/11 12:11:46;;;;;;;26.93;19.27;;;8.10;1.00;;;;;;5047544;28;20831;-55
2023/02/11 12:14:23;;;;;;;30.67;21.00;;;8.10;1.00;;;;;;5043848;28;20451;-57
2023/02/11 12:17:24;;;;;;;29.07;20.03;;;8.10;1.00;;;;;;5050237;28;20964;-58
2023/02/11 12:19:56;;;;;;;29.67;19.93;;;8.20;1.00;;;;;;5043383;28;20959;-56
2023/02/11 12:22:48;;;;;;;27.27;19.60;;;8.10;1.00;;;;;;5049004;28;20520;-56
2023/02/11 12:25:26;;;;;;;27.03;19.60;;;8.20;1.00;;;;;;5049466;28;20817;-58
2023/02/11 12:28:01;;;;;;;30.77;19.50;;;8.10;1.00;;;;;;5044169;28;20471;-58
2023/02/11 12:30:35;;;;;;;30.00;19.93;;;8.10;1.00;;;;;;5043434;28;20444;-58
2023/02/11 12:33:09;;;;;;;31.50;20.90;;;8.00;1.00;;;;;;5061500;28;20429;-57
2023/02/11 12:36:00;;;;;;;29.13;20.20;;;8.00;1.00;;;;;;5070900;28;20419;-57
2023/02/11 12:38:50;;;;;;;27.57;18.90;;;7.90;1.00;;;;;;5064627;28;20495;-58
2023/02/11 12:44:54;;;;;;;30.57;20.60;;;8.00;1.00;;;;;;5050908;28;20476;-58
2023/02/11 12:47:58;;;;;;;30.77;21.30;;;7.90;1.00;;;;;;5050517;28;20572;-57
2023/02/11 12:50:33;;;;;;;27.97;20.00;;;7.90;1.00;;;;;;5050637;28;20427;-57
2023/02/11 12:53:23;;;;;;;31.30;20.13;;;7.90;1.00;;;;;;5064969;28;20461;-58
2023/02/11 12:55:55;;;;;;;27.40;20.60;;;7.90;1.00;;;;;;5065190;28;20438;-58
2023/02/11 12:58:26;;;;;;;30.90;20.73;;;7.90;1.00;;;;;;5048426;28;20443;-57
2023/02/11 13:01:00;;;;;;;29.00;19.67;;;7.80;1.00;;;;;;5063298;28;20870;-58
2023/02/11 13:03:35;;;;;;;28.10;19.97;;;7.90;1.00;;;;;;5069069;28;20444;-58
2023/02/11 13:06:08;;;;;;;35.07;20.70;;;8.00;1.00;;;;;;5056909;28;20437;-57
2023/02/11 13:09:07;;;;;;;30.20;20.03;;;7.90;1.00;;;;;;5048270;28;20474;-57
2023/02/11 13:11:38;;;;;;;30.87;20.03;;;7.80;1.00;;;;;;5045004;28;20447;-57
2023/02/11 13:14:21;;;;;;;29.10;19.37;;;7.90;1.00;;;;;;5049139;28;20448;-59